Kansas City, Missouri
Traffic Map
Current Weather Conditions
Kansas City, Missouri
Clear
Clear
23°
Feels Like: 23°
Wind Chill: 23° Ceiling: Unl
Heat Index: 23° Visibility: 10mi
Dew Point: 15° Wind: 0mph
Humidity: 61% Direction: ° ()
Pressure: 30.05in Gusts: 0mph
Raw Report DataKMKC 010454Z 00000KT 10SM CLR 23/15 A3005 RMK AO2 SLP169 T02280150
Traffic Incident Summary
Active as of:
Severity:
Category:
InformationThere was an issue retrieving the traffic information for this location. Please try a different location or try again shortly.
Advertisements
Track Severe Weather on mobile